createdAt,value
2019-02-19T00:00:57.365Z,12.90
2019-02-19T00:01:57.840Z,12.20
2019-02-19T00:02:57.275Z,9.30
2019-02-19T00:03:57.264Z,11.80
2019-02-19T00:04:57.244Z,11.30
2019-02-19T00:05:57.224Z,11.50
2019-02-19T00:06:57.231Z,14.00
2019-02-19T00:07:57.178Z,12.20
2019-02-19T00:08:57.182Z,10.70
2019-02-19T00:09:57.184Z,11.70
2019-02-19T00:10:57.130Z,8.80
2019-02-19T00:11:57.181Z,11.10
2019-02-19T00:12:57.171Z,12.50
2019-02-19T00:13:57.123Z,11.60
2019-02-19T00:14:57.104Z,9.80
2019-02-19T00:15:57.100Z,11.30
2019-02-19T00:16:57.103Z,9.20
2019-02-19T00:17:57.105Z,10.90
2019-02-19T00:18:57.054Z,8.60
2019-02-19T00:19:57.265Z,10.90
2019-02-19T00:20:57.151Z,9.20
2019-02-19T00:21:57.215Z,11.20
2019-02-19T00:22:57.124Z,8.90
2019-02-19T00:23:57.300Z,9.40
2019-02-19T00:24:57.209Z,12.50
2019-02-19T00:25:57.113Z,12.60
2019-02-19T00:26:57.095Z,7.60
2019-02-19T00:27:57.053Z,8.30
2019-02-19T00:28:57.115Z,10.00
2019-02-19T00:29:57.080Z,11.90
2019-02-19T00:30:57.049Z,8.30
2019-02-19T00:31:57.131Z,11.50
2019-02-19T00:32:57.066Z,9.00
2019-02-19T00:33:57.067Z,9.80
2019-02-19T00:34:57.117Z,7.90
2019-02-19T00:35:56.947Z,10.00
2019-02-19T00:36:57.010Z,11.50
2019-02-19T00:37:56.993Z,11.10
2019-02-19T00:38:56.977Z,9.80
2019-02-19T00:39:57.099Z,9.50
2019-02-19T00:40:57.028Z,11.10
2019-02-19T00:41:56.890Z,10.60
2019-02-19T00:42:56.898Z,10.70
2019-02-19T00:43:56.903Z,9.30
2019-02-19T00:44:56.836Z,11.00
2019-02-19T00:45:56.919Z,10.90
2019-02-19T00:46:56.847Z,9.90
2019-02-19T00:47:57.214Z,9.50
2019-02-19T00:48:56.854Z,12.60
2019-02-19T00:49:56.908Z,8.00
2019-02-19T00:50:56.923Z,9.40
2019-02-19T00:51:56.858Z,10.60
2019-02-19T00:52:56.891Z,10.40
2019-02-19T00:53:56.803Z,8.60
2019-02-19T00:54:56.865Z,9.40
2019-02-19T00:55:56.824Z,11.00
2019-02-19T00:56:56.799Z,10.00
2019-02-19T00:57:56.978Z,11.30
2019-02-19T00:58:56.856Z,10.40
2019-02-19T00:59:56.689Z,11.00
2019-02-19T01:00:56.721Z,10.90
2019-02-19T01:01:56.623Z,10.60
2019-02-19T01:02:56.704Z,12.30
2019-02-19T01:03:56.784Z,9.50
2019-02-19T01:04:56.718Z,12.40
2019-02-19T01:05:56.622Z,11.20
2019-02-19T01:06:56.690Z,10.40
2019-02-19T01:07:56.772Z,10.30
2019-02-19T01:08:57.424Z,10.60
2019-02-19T01:09:56.708Z,9.70
2019-02-19T01:10:56.629Z,13.50
2019-02-19T01:11:56.766Z,13.00
2019-02-19T01:12:56.920Z,10.10
2019-02-19T01:13:56.664Z,10.70
2019-02-19T01:14:56.559Z,10.90
2019-02-19T01:15:56.690Z,14.60
2019-02-19T01:16:56.559Z,10.70
2019-02-19T01:17:56.653Z,9.80
2019-02-19T01:18:56.641Z,12.40
2019-02-19T01:19:56.720Z,9.90
2019-02-19T01:20:56.521Z,10.90
2019-02-19T01:21:56.531Z,9.60
2019-02-19T01:22:56.532Z,9.90
2019-02-19T01:23:56.509Z,12.10
2019-02-19T01:24:56.908Z,10.10
2019-02-19T01:25:56.435Z,10.40
2019-02-19T01:26:56.663Z,11.80
2019-02-19T01:27:56.444Z,13.60
2019-02-19T01:28:58.260Z,14.60
2019-02-19T01:29:56.726Z,10.30
2019-02-19T01:30:56.457Z,9.10
2019-02-19T01:31:56.413Z,9.80
2019-02-19T01:32:56.518Z,11.60
2019-02-19T01:33:56.509Z,12.60
2019-02-19T01:34:56.567Z,9.30
2019-02-19T01:35:56.357Z,9.00
2019-02-19T01:36:56.419Z,11.60
2019-02-19T01:37:56.297Z,8.60
2019-02-19T01:38:56.405Z,12.90
2019-02-19T01:39:56.401Z,10.30
2019-02-19T01:40:56.369Z,9.70
2019-02-19T01:41:56.420Z,12.50
2019-02-19T01:42:56.389Z,11.90
2019-02-19T01:43:56.225Z,11.60
2019-02-19T01:44:56.475Z,9.50
2019-02-19T01:45:56.472Z,11.60
2019-02-19T01:46:56.306Z,9.10
2019-02-19T01:47:56.352Z,8.90
2019-02-19T01:48:56.292Z,8.40
2019-02-19T01:49:56.212Z,12.20
2019-02-19T01:50:56.355Z,12.00
2019-02-19T01:51:56.273Z,9.70
2019-02-19T01:52:56.347Z,13.00
2019-02-19T01:53:56.363Z,8.90
2019-02-19T01:54:56.099Z,11.00
2019-02-19T01:55:56.163Z,12.40
2019-02-19T01:56:56.150Z,12.70
2019-02-19T01:57:56.176Z,11.60
2019-02-19T01:58:56.025Z,13.60
2019-02-19T01:59:56.040Z,11.00
2019-02-19T02:00:56.075Z,13.20
2019-02-19T02:01:56.380Z,13.60
2019-02-19T02:02:56.078Z,10.50
2019-02-19T02:03:56.208Z,13.20
2019-02-19T02:04:56.258Z,12.50
2019-02-19T02:05:56.167Z,13.30
2019-02-19T02:06:56.205Z,12.90
2019-02-19T02:07:56.174Z,13.70
2019-02-19T02:08:56.107Z,12.80
2019-02-19T02:09:56.012Z,13.00
2019-02-19T02:10:55.979Z,12.50
2019-02-19T02:11:56.218Z,15.60
2019-02-19T02:12:56.046Z,12.10
2019-02-19T02:13:55.889Z,14.10
2019-02-19T02:14:55.970Z,12.40
2019-02-19T02:15:56.004Z,14.80
2019-02-19T02:16:55.996Z,13.30
2019-02-19T02:17:55.939Z,13.30
2019-02-19T02:18:55.894Z,15.70
2019-02-19T02:19:55.842Z,16.60
2019-02-19T02:20:55.914Z,15.80
2019-02-19T02:21:55.947Z,14.70
2019-02-19T02:22:55.883Z,15.40
2019-02-19T02:23:55.933Z,17.00
2019-02-19T02:24:55.819Z,16.40
2019-02-19T02:25:55.673Z,18.10
2019-02-19T02:26:55.692Z,17.70
2019-02-19T02:27:55.650Z,19.60
2019-02-19T02:28:55.651Z,21.40
2019-02-19T02:29:55.681Z,21.00
2019-02-19T02:30:55.623Z,18.60
2019-02-19T02:31:55.648Z,18.10
2019-02-19T02:32:55.608Z,19.30
2019-02-19T02:33:55.590Z,18.40
2019-02-19T02:34:55.579Z,16.20
2019-02-19T02:35:55.577Z,21.70
2019-02-19T02:36:55.570Z,17.50
2019-02-19T02:37:55.575Z,18.80
2019-02-19T02:38:55.540Z,17.10
2019-02-19T02:39:55.526Z,20.40
2019-02-19T02:40:55.512Z,19.00
2019-02-19T02:41:55.595Z,18.10
2019-02-19T02:42:55.492Z,19.20
2019-02-19T02:43:55.532Z,18.80
2019-02-19T02:44:55.482Z,21.20
2019-02-19T02:45:55.485Z,19.10
2019-02-19T02:46:55.463Z,21.10
2019-02-19T02:47:55.467Z,17.50
2019-02-19T02:48:55.429Z,21.20
2019-02-19T02:49:55.416Z,20.60
2019-02-19T02:50:55.412Z,22.00
2019-02-19T02:51:55.408Z,19.70
2019-02-19T02:52:55.402Z,18.30
2019-02-19T02:53:55.399Z,22.50
2019-02-19T02:54:55.375Z,20.40
2019-02-19T02:55:55.354Z,23.90
2019-02-19T02:56:55.346Z,27.30
2019-02-19T02:57:55.353Z,22.80
2019-02-19T02:58:56.171Z,21.70
2019-02-19T02:59:55.314Z,25.60
2019-02-19T03:00:55.303Z,25.90
2019-02-19T03:01:55.292Z,28.10
2019-02-19T03:02:55.289Z,30.00
2019-02-19T03:03:55.297Z,27.30
2019-02-19T03:04:55.257Z,30.60
2019-02-19T03:05:55.270Z,30.80
2019-02-19T03:06:55.235Z,29.70
2019-02-19T03:07:55.239Z,32.50
2019-02-19T03:08:55.247Z,32.00
2019-02-19T03:09:55.211Z,29.90
2019-02-19T03:10:55.199Z,34.40
2019-02-19T03:11:55.237Z,35.00
2019-02-19T03:12:55.169Z,32.00
2019-02-19T03:13:55.202Z,35.00
2019-02-19T03:14:55.155Z,31.90
2019-02-19T03:16:02.287Z,31.60
2019-02-19T03:16:56.134Z,33.30
2019-02-19T03:17:55.144Z,32.20
2019-02-19T03:18:55.113Z,34.00
2019-02-19T03:19:55.123Z,30.90
2019-02-19T03:20:55.121Z,28.90
2019-02-19T03:21:55.080Z,38.20
2019-02-19T03:22:55.068Z,32.00
2019-02-19T03:23:55.100Z,32.50
2019-02-19T03:24:55.078Z,35.20
2019-02-19T03:25:55.034Z,32.50
2019-02-19T03:26:55.055Z,34.70
2019-02-19T03:27:55.011Z,32.80
2019-02-19T03:28:55.011Z,34.90
2019-02-19T03:29:56.749Z,32.90
2019-02-19T03:30:54.993Z,35.90
2019-02-19T03:31:54.994Z,40.90
2019-02-19T03:32:54.966Z,34.70
2019-02-19T03:33:54.956Z,35.00
2019-02-19T03:34:56.667Z,30.60
2019-02-19T03:35:54.935Z,35.90
2019-02-19T03:36:54.927Z,39.40
2019-02-19T03:37:54.912Z,33.90
2019-02-19T03:38:54.895Z,33.60
2019-02-19T03:39:54.933Z,37.60
2019-02-19T03:40:54.874Z,37.70
2019-02-19T03:41:54.881Z,41.20
2019-02-19T03:42:54.848Z,31.00
2019-02-19T03:43:54.842Z,38.20
2019-02-19T03:44:54.882Z,33.20
2019-02-19T03:45:54.833Z,34.40
2019-02-19T03:46:54.816Z,31.70
2019-02-19T03:47:54.801Z,30.70
2019-02-19T03:48:54.807Z,30.10
2019-02-19T03:49:56.675Z,31.80
2019-02-19T03:50:54.782Z,31.00
2019-02-19T03:51:54.757Z,34.70
2019-02-19T03:52:54.757Z,33.10
2019-02-19T03:53:54.760Z,30.70
2019-02-19T03:54:54.731Z,30.10
2019-02-19T03:55:54.746Z,34.10
2019-02-19T03:56:54.749Z,29.00
2019-02-19T03:57:54.752Z,31.60
2019-02-19T03:58:54.693Z,32.50
2019-02-19T03:59:54.670Z,33.80
2019-02-19T04:00:54.697Z,33.60
2019-02-19T04:01:54.660Z,31.40
2019-02-19T04:02:54.658Z,32.30
2019-02-19T04:03:54.645Z,34.90
2019-02-19T04:04:54.622Z,36.20
2019-02-19T04:05:54.643Z,40.20
2019-02-19T04:06:54.600Z,35.00
2019-02-19T04:07:54.592Z,34.90
2019-02-19T04:08:54.580Z,40.00
2019-02-19T04:09:54.626Z,38.80
2019-02-19T04:10:54.553Z,37.60
2019-02-19T04:11:54.565Z,35.90
2019-02-19T04:12:54.536Z,36.70
2019-02-19T04:13:54.526Z,40.10
2019-02-19T04:14:54.534Z,36.40
2019-02-19T04:15:54.505Z,35.20
2019-02-19T04:16:54.520Z,39.50
2019-02-19T04:17:54.481Z,37.50
2019-02-19T04:18:54.495Z,33.70
2019-02-19T04:19:54.459Z,32.60
2019-02-19T04:20:54.456Z,35.10
2019-02-19T04:21:54.471Z,36.10
2019-02-19T04:22:54.432Z,38.50
2019-02-19T04:23:54.423Z,43.00
2019-02-19T04:24:54.439Z,41.20
2019-02-19T04:25:54.401Z,42.70
2019-02-19T04:26:54.414Z,40.50
2019-02-19T04:27:54.440Z,42.50
2019-02-19T04:28:54.392Z,38.30
2019-02-19T04:29:54.354Z,36.20
2019-02-19T04:30:54.362Z,39.00
2019-02-19T04:31:54.416Z,38.20
2019-02-19T04:32:54.359Z,34.50
2019-02-19T04:33:54.312Z,38.10
2019-02-19T04:34:54.298Z,39.20
2019-02-19T04:35:54.297Z,38.20
2019-02-19T04:36:54.280Z,40.90
2019-02-19T04:37:54.297Z,38.40
2019-02-19T04:38:54.261Z,39.90
2019-02-19T04:39:54.247Z,43.40
2019-02-19T04:40:54.239Z,41.40
2019-02-19T04:41:54.236Z,40.80
2019-02-19T04:42:54.246Z,44.00
2019-02-19T04:43:54.209Z,37.60
2019-02-19T04:44:54.206Z,36.90
2019-02-19T04:45:54.221Z,38.30
2019-02-19T04:46:54.181Z,33.00
2019-02-19T04:47:54.195Z,35.30
2019-02-19T04:48:54.157Z,36.60
2019-02-19T04:49:54.146Z,39.70
2019-02-19T04:50:54.141Z,38.50
2019-02-19T04:51:54.122Z,41.30
2019-02-19T04:52:54.111Z,36.50
2019-02-19T04:53:54.124Z,37.90
2019-02-19T04:54:54.103Z,35.00
2019-02-19T04:55:54.088Z,35.20
2019-02-19T04:56:54.073Z,37.70
2019-02-19T04:57:54.064Z,38.40
2019-02-19T04:58:54.047Z,37.20
2019-02-19T04:59:54.059Z,37.90
2019-02-19T05:00:54.023Z,40.90
2019-02-19T05:01:54.020Z,42.30
2019-02-19T05:02:54.021Z,45.40
2019-02-19T05:03:53.992Z,41.80
2019-02-19T05:04:54.002Z,41.80
2019-02-19T05:05:53.981Z,47.10
2019-02-19T05:06:53.961Z,47.00
2019-02-19T05:07:54.556Z,46.10
2019-02-19T05:08:54.307Z,42.80
2019-02-19T05:09:55.340Z,54.00
2019-02-19T05:10:54.068Z,46.00
2019-02-19T05:11:54.334Z,47.70
2019-02-19T05:12:54.335Z,45.90
2019-02-19T05:13:54.173Z,48.10
2019-02-19T05:14:54.490Z,50.40
2019-02-19T05:15:54.048Z,43.30
2019-02-19T05:35:06.342Z,49.20
2019-02-19T05:36:06.663Z,49.50
2019-02-19T05:37:05.788Z,46.60
2019-02-19T05:38:06.227Z,49.50
2019-02-19T05:39:05.689Z,49.80
2019-02-19T05:40:05.705Z,50.20
2019-02-19T05:41:05.676Z,48.80
2019-02-19T05:42:05.796Z,47.40
2019-02-19T05:43:05.589Z,43.70
2019-02-19T05:44:05.597Z,54.20
2019-02-19T05:45:05.583Z,53.10
2019-02-19T05:46:05.630Z,52.60
2019-02-19T05:47:05.535Z,52.30
2019-02-19T05:48:05.585Z,49.80
2019-02-19T05:49:05.634Z,44.70
2019-02-19T05:50:05.585Z,47.30
2019-02-19T05:51:05.586Z,49.40
2019-02-19T05:52:05.500Z,47.60
2019-02-19T05:53:05.616Z,46.30
2019-02-19T05:54:05.566Z,52.80
2019-02-19T05:55:05.455Z,49.10
2019-02-19T05:56:05.685Z,48.70
2019-02-19T05:57:05.472Z,46.80
2019-02-19T05:58:05.595Z,39.90
2019-02-19T05:59:05.571Z,38.90
2019-02-19T06:00:05.400Z,51.20
2019-02-19T06:01:05.568Z,53.00
2019-02-19T06:02:05.660Z,46.20
2019-02-19T06:03:05.489Z,40.70
2019-02-19T06:04:05.542Z,40.80
2019-02-19T06:05:05.983Z,45.20
2019-02-19T06:06:05.428Z,36.90
2019-02-19T06:07:05.539Z,38.60
2019-02-19T06:08:05.453Z,40.80
2019-02-19T06:09:05.573Z,41.70
2019-02-19T06:10:05.590Z,41.40
2019-02-19T06:11:05.472Z,35.30
2019-02-19T06:12:05.604Z,37.80
2019-02-19T06:13:05.598Z,37.90
2019-02-19T06:14:05.545Z,39.50
2019-02-19T06:15:05.410Z,37.70
2019-02-19T06:16:05.511Z,34.80
2019-02-19T06:17:05.450Z,40.90
2019-02-19T06:18:05.465Z,38.30
2019-02-19T06:19:05.498Z,36.40
2019-02-19T10:12:49.497Z,39.60
2019-02-19T10:13:55.760Z,17.50
2019-02-19T10:14:50.928Z,15.10
2019-02-19T10:15:49.131Z,17.00
2019-02-19T10:16:49.331Z,17.00
2019-02-19T10:17:49.481Z,20.20
2019-02-19T10:18:53.186Z,17.20
2019-02-19T10:19:49.646Z,15.40
2019-02-19T10:20:59.685Z,18.00
2019-02-19T10:21:48.953Z,14.10
2019-02-19T10:22:49.512Z,18.20
2019-02-19T10:23:49.546Z,19.50
2019-02-19T10:24:49.313Z,14.80
2019-02-19T10:25:49.678Z,16.30
2019-02-19T10:26:51.611Z,16.80
2019-02-19T10:28:06.908Z,22.40
2019-02-19T10:28:52.597Z,14.40
2019-02-19T10:30:25.039Z,18.30
2019-02-19T10:30:49.527Z,16.80
2019-02-19T10:31:50.270Z,16.30
2019-02-19T11:33:39.078Z,18.50
2019-02-19T11:34:38.919Z,15.20
2019-02-19T11:35:38.714Z,9.20
2019-02-19T11:36:38.889Z,9.10
2019-02-19T11:37:38.818Z,13.10
2019-02-19T11:38:39.109Z,11.60
2019-02-19T11:39:38.735Z,11.10
2019-02-19T11:40:38.874Z,11.40
2019-02-19T11:41:38.622Z,12.70
2019-02-19T11:42:39.216Z,11.40
2019-02-19T11:43:39.001Z,9.70
2019-02-19T11:44:38.573Z,11.10
2019-02-19T11:45:38.560Z,14.10
2019-02-19T11:46:38.679Z,13.00
2019-02-19T11:47:38.921Z,12.40
2019-02-19T11:48:38.761Z,11.40
2019-02-19T11:49:38.572Z,8.10
2019-02-19T11:50:38.570Z,14.50
2019-02-19T11:51:38.530Z,10.00
2019-02-19T11:52:38.513Z,12.20
2019-02-19T11:53:38.450Z,14.90
2019-02-19T11:54:38.391Z,12.70
2019-02-19T11:55:38.362Z,12.20
2019-02-19T11:56:38.393Z,15.00
2019-02-19T11:57:38.353Z,9.60
2019-02-19T11:58:38.483Z,13.50
2019-02-19T11:59:38.346Z,12.80
2019-02-19T12:00:38.545Z,11.50
2019-02-19T12:01:38.271Z,10.20
2019-02-19T12:02:38.302Z,12.20
2019-02-19T12:03:38.598Z,14.10
2019-02-19T12:04:38.329Z,15.00
2019-02-19T12:05:38.361Z,11.50
2019-02-19T12:06:39.597Z,14.60
2019-02-19T12:07:38.307Z,11.00
2019-02-19T12:08:39.286Z,12.30
2019-02-19T12:09:38.346Z,12.00
2019-02-19T12:10:38.223Z,10.80
2019-02-19T12:11:38.691Z,11.90
2019-02-19T12:12:38.288Z,11.40
2019-02-19T12:13:38.371Z,14.80
2019-02-19T12:14:38.389Z,10.80
2019-02-19T12:15:38.402Z,11.70
2019-02-19T12:16:39.272Z,9.90
2019-02-19T12:17:38.428Z,11.10
2019-02-19T12:18:45.828Z,11.70
2019-02-19T12:19:39.605Z,13.20
2019-02-19T12:20:38.305Z,11.90
2019-02-19T12:21:38.252Z,11.90
2019-02-19T12:22:41.073Z,14.00
2019-02-19T12:23:39.372Z,15.10
2019-02-19T12:24:38.547Z,11.40
2019-02-19T12:25:38.494Z,13.70
2019-02-19T12:26:38.423Z,16.30
2019-02-19T12:27:38.240Z,11.40
2019-02-19T12:28:38.400Z,12.80
2019-02-19T12:29:38.842Z,12.40
2019-02-19T12:30:38.747Z,14.60
2019-02-19T12:31:40.787Z,10.70
2019-02-19T12:32:38.117Z,12.00
2019-02-19T12:33:38.198Z,11.20
2019-02-19T12:34:38.449Z,16.20
2019-02-19T12:35:38.144Z,9.30
2019-02-19T12:36:38.318Z,16.80
2019-02-19T12:37:38.639Z,10.00
2019-02-19T12:38:38.740Z,13.00
2019-02-19T12:39:51.843Z,11.80
2019-02-19T12:42:30.251Z,10.60
2019-02-19T12:42:59.196Z,9.20
2019-02-19T12:43:59.182Z,11.30
2019-02-19T12:45:02.434Z,14.00
2019-02-19T12:45:59.390Z,10.50
2019-02-19T12:46:59.111Z,12.90
2019-02-19T12:47:59.072Z,9.70
2019-02-19T12:48:58.988Z,11.30
2019-02-19T12:50:06.246Z,12.00
2019-02-19T12:50:59.344Z,9.30
2019-02-19T12:51:59.194Z,10.50
2019-02-19T12:52:59.101Z,11.00
2019-02-19T12:53:59.237Z,9.10
2019-02-19T12:54:59.258Z,13.40
2019-02-19T12:56:59.053Z,9.70
2019-02-19T12:57:59.415Z,12.50
2019-02-19T12:59:00.066Z,8.80
2019-02-19T13:00:02.757Z,9.00
2019-02-19T13:01:00.192Z,10.70
2019-02-19T13:01:59.079Z,10.70
2019-02-19T13:03:08.709Z,11.30
2019-02-19T13:03:59.221Z,9.60
2019-02-19T13:04:59.224Z,11.30
2019-02-19T13:06:00.905Z,9.40
2019-02-19T13:06:59.124Z,11.70
2019-02-19T13:07:59.229Z,8.70
2019-02-19T13:09:07.810Z,11.00
2019-02-19T13:09:58.953Z,12.30
2019-02-19T13:11:00.040Z,12.90
2019-02-19T13:12:00.657Z,9.20
2019-02-19T13:12:58.722Z,7.40
2019-02-19T13:13:58.845Z,10.50
2019-02-19T13:14:59.148Z,7.80
2019-02-19T13:15:59.449Z,8.00
2019-02-19T13:16:58.936Z,10.10
2019-02-19T13:17:59.188Z,13.00
2019-02-19T13:19:03.562Z,9.90
2019-02-19T13:20:00.543Z,7.80
2019-02-19T13:21:01.992Z,8.40
2019-02-19T13:21:58.761Z,12.00
2019-02-19T13:22:58.985Z,7.30
2019-02-19T13:23:58.978Z,9.40
2019-02-19T13:24:58.816Z,12.40
2019-02-19T13:25:58.806Z,8.30
2019-02-19T13:26:58.683Z,9.20
2019-02-19T13:29:01.930Z,14.00
2019-02-19T13:30:01.083Z,9.00
2019-02-19T13:31:01.888Z,11.70
2019-02-19T13:32:00.288Z,8.30
2019-02-19T13:33:00.121Z,10.20
2019-02-19T13:34:01.093Z,12.70
2019-02-19T13:35:00.144Z,10.70
2019-02-19T13:36:00.153Z,11.90
2019-02-19T13:37:00.160Z,10.10
2019-02-19T13:38:00.112Z,9.50
2019-02-19T13:39:00.180Z,10.70
2019-02-19T13:40:00.299Z,9.80
2019-02-19T13:41:00.243Z,12.70
2019-02-19T13:42:00.005Z,12.20
2019-02-19T13:43:00.096Z,13.00
2019-02-19T13:44:00.013Z,9.70
2019-02-19T13:45:00.321Z,10.30
2019-02-19T13:46:00.327Z,9.70
2019-02-19T13:47:00.297Z,14.00
2019-02-19T13:48:05.738Z,11.00
2019-02-19T13:49:01.069Z,10.90
2019-02-19T13:50:00.217Z,7.20
2019-02-19T13:51:00.016Z,8.20
2019-02-19T13:52:00.132Z,9.20
2019-02-19T13:52:59.921Z,9.10
2019-02-19T13:54:00.052Z,17.50
2019-02-19T13:55:00.233Z,7.80
2019-02-19T13:56:02.286Z,10.20
2019-02-19T13:57:00.163Z,9.70
2019-02-19T13:58:00.025Z,10.00
2019-02-19T13:59:00.299Z,10.60
2019-02-19T14:00:00.475Z,8.80
2019-02-19T14:01:00.385Z,11.20
2019-02-19T14:02:01.186Z,8.30
2019-02-19T14:03:00.422Z,9.20
2019-02-19T14:04:00.245Z,8.90
2019-02-19T14:05:00.867Z,9.50
2019-02-19T14:06:02.051Z,9.50
2019-02-19T14:07:00.054Z,7.50
2019-02-19T14:07:59.891Z,10.40
2019-02-19T14:09:02.055Z,9.20
2019-02-19T14:10:00.291Z,6.10
2019-02-19T14:11:03.254Z,10.60
2019-02-19T14:12:00.113Z,9.30
2019-02-19T14:13:00.901Z,13.00
2019-02-19T14:13:59.984Z,12.80
2019-02-19T14:15:00.295Z,8.30
2019-02-19T14:16:01.000Z,7.60
2019-02-19T14:17:06.392Z,7.40
2019-02-19T14:17:59.635Z,8.00
2019-02-19T17:23:06.622Z,8.80
2019-02-19T17:24:06.463Z,11.80
2019-02-19T17:25:07.146Z,11.50
2019-02-19T17:26:06.348Z,8.20
2019-02-19T17:27:06.327Z,7.20
2019-02-19T17:28:06.308Z,7.50
2019-02-19T17:29:06.285Z,8.20
2019-02-19T17:30:06.296Z,9.50
2019-02-19T17:31:06.299Z,8.00
2019-02-19T17:32:06.260Z,12.30
2019-02-19T17:33:06.321Z,8.60
2019-02-19T17:34:06.252Z,7.90
2019-02-19T17:35:06.225Z,10.90
2019-02-19T17:36:06.255Z,7.00
2019-02-19T17:37:06.209Z,13.40
2019-02-19T17:38:14.414Z,8.10
2019-02-19T17:39:07.211Z,7.50
2019-02-19T17:40:06.174Z,8.10
2019-02-19T17:41:06.180Z,10.00
2019-02-19T17:42:06.193Z,10.20
2019-02-19T17:43:06.143Z,11.20
2019-02-19T17:44:06.134Z,7.90
2019-02-19T17:45:06.122Z,9.60
2019-02-19T17:46:06.124Z,10.30
2019-02-19T17:47:06.126Z,8.70
2019-02-19T17:48:06.135Z,9.40
2019-02-19T17:49:06.079Z,12.70
2019-02-19T17:50:06.074Z,9.50
2019-02-19T17:51:06.193Z,9.40
2019-02-19T17:52:06.070Z,12.10
2019-02-19T17:53:06.048Z,9.20
2019-02-19T17:54:06.025Z,11.30
2019-02-19T17:55:06.015Z,9.60
2019-02-19T17:56:06.079Z,10.20
2019-02-19T17:57:06.017Z,9.30
2019-02-19T17:58:05.991Z,10.00
2019-02-19T17:59:06.011Z,8.10
2019-02-19T18:00:05.977Z,11.20
2019-02-19T18:01:05.953Z,7.50
2019-02-19T18:02:05.968Z,8.90
2019-02-19T18:03:06.009Z,14.30
2019-02-19T18:04:05.933Z,9.80
2019-02-19T18:05:05.927Z,11.30
2019-02-19T18:06:05.971Z,10.60
2019-02-19T18:07:05.900Z,16.20
2019-02-19T18:08:05.903Z,13.60
2019-02-19T18:09:05.966Z,10.20
2019-02-19T18:10:05.861Z,9.00
2019-02-19T18:11:05.876Z,11.30
2019-02-19T18:12:05.841Z,11.00
2019-02-19T18:13:05.912Z,10.90
2019-02-19T18:14:05.820Z,8.80
2019-02-19T18:15:05.800Z,11.80
2019-02-19T18:16:05.825Z,8.30
2019-02-19T18:17:05.794Z,9.30
2019-02-19T18:18:05.812Z,8.20
2019-02-19T18:19:05.767Z,8.80
2019-02-19T18:20:05.758Z,6.90
2019-02-19T18:21:05.749Z,11.00
2019-02-19T18:22:05.735Z,14.60
2019-02-19T18:23:05.744Z,9.50
2019-02-19T18:24:05.772Z,11.70
2019-02-19T18:25:05.703Z,11.10
2019-02-19T18:26:05.693Z,12.70
2019-02-19T18:27:05.682Z,9.90
2019-02-19T18:28:05.690Z,11.20
2019-02-19T18:29:05.682Z,12.40
2019-02-19T18:30:05.835Z,10.70
2019-02-19T18:31:05.654Z,9.90
2019-02-19T18:32:05.689Z,12.90
2019-02-19T18:33:05.664Z,11.70
2019-02-19T18:34:07.777Z,12.30
2019-02-19T18:35:05.612Z,11.50
2019-02-19T18:36:05.673Z,12.00
2019-02-19T18:37:05.629Z,11.50
2019-02-19T18:38:05.595Z,11.70
2019-02-19T18:39:05.691Z,9.00
2019-02-19T18:40:05.603Z,8.90
2019-02-19T18:41:05.621Z,14.20
2019-02-19T18:42:05.529Z,9.70
2019-02-19T18:43:05.535Z,9.00
2019-02-19T18:44:05.558Z,9.30
2019-02-19T18:45:05.528Z,10.50
2019-02-19T18:46:05.489Z,9.50
2019-02-19T18:47:05.512Z,8.90
2019-02-19T18:48:05.494Z,13.70
2019-02-19T18:49:05.507Z,10.90
2019-02-19T18:50:05.510Z,13.30
2019-02-19T18:51:05.502Z,9.90
2019-02-19T18:52:05.436Z,9.40
2019-02-19T18:53:05.449Z,11.50
2019-02-19T18:54:05.518Z,8.20
2019-02-19T18:55:05.460Z,11.20
2019-02-19T18:56:05.454Z,7.70
2019-02-19T18:57:05.416Z,10.50
2019-02-19T18:58:05.368Z,8.70
2019-02-19T18:59:05.434Z,11.50
2019-02-19T19:00:05.349Z,11.20
2019-02-19T19:01:05.382Z,10.70
2019-02-19T19:02:05.325Z,10.00
2019-02-19T19:03:05.408Z,10.60
2019-02-19T19:04:05.584Z,8.50
2019-02-19T19:05:05.557Z,9.60
2019-02-19T19:06:05.731Z,8.10
2019-02-19T19:07:05.862Z,11.40
2019-02-19T19:08:05.417Z,9.10
2019-02-19T19:09:05.477Z,10.30
2019-02-19T19:10:05.334Z,11.70
2019-02-19T19:11:05.522Z,10.60
2019-02-19T19:12:05.339Z,11.90
2019-02-19T19:13:05.202Z,8.40
2019-02-19T19:14:05.289Z,6.80
2019-02-19T19:15:05.192Z,13.10
2019-02-19T19:16:05.346Z,12.10
2019-02-19T19:17:05.195Z,15.70
2019-02-19T19:18:05.160Z,10.60
2019-02-19T19:19:05.383Z,11.90
2019-02-19T19:20:05.232Z,11.20
2019-02-19T19:21:07.930Z,10.50
2019-02-19T19:22:05.162Z,9.00
2019-02-19T19:23:05.146Z,10.60
2019-02-19T19:24:05.201Z,11.20
2019-02-19T19:25:05.169Z,14.00
2019-02-19T19:26:05.191Z,16.30
2019-02-19T19:27:05.265Z,11.10
2019-02-19T19:28:05.202Z,11.30
2019-02-19T19:29:05.295Z,12.10
2019-02-19T19:30:05.153Z,8.40
2019-02-19T19:31:05.129Z,14.20
2019-02-19T19:32:05.074Z,10.60
2019-02-19T19:33:05.066Z,12.40
2019-02-19T19:34:04.994Z,12.00
2019-02-19T19:35:05.006Z,18.00
2019-02-19T19:36:04.978Z,20.70
2019-02-19T19:37:05.078Z,22.70
2019-02-19T19:38:05.018Z,21.30
2019-02-19T19:39:05.021Z,22.60
2019-02-19T19:40:05.004Z,24.90
2019-02-19T19:41:04.919Z,21.70
2019-02-19T19:42:04.935Z,21.00
2019-02-19T19:43:04.918Z,21.60
2019-02-19T19:44:04.892Z,22.30
2019-02-19T19:45:04.928Z,23.20
2019-02-19T19:46:04.866Z,17.70
2019-02-19T19:47:04.894Z,15.60
2019-02-19T19:48:04.894Z,17.80
2019-02-19T19:49:04.851Z,11.80
2019-02-19T19:50:04.881Z,11.30
2019-02-19T19:51:04.870Z,11.70
2019-02-19T19:52:04.801Z,9.90
2019-02-19T19:53:04.818Z,12.60
2019-02-19T19:54:04.789Z,10.20
2019-02-19T19:55:04.760Z,11.20
2019-02-19T19:56:04.927Z,15.50
2019-02-19T19:57:04.803Z,13.00
2019-02-19T19:58:04.837Z,11.30
2019-02-19T19:59:04.786Z,9.70
2019-02-19T20:00:04.759Z,13.50
2019-02-19T20:01:04.730Z,12.20
2019-02-19T20:02:04.742Z,8.80
2019-02-19T20:03:04.703Z,15.80
2019-02-19T20:04:04.690Z,9.10
2019-02-19T20:05:04.685Z,13.00
2019-02-19T20:06:05.124Z,19.40
2019-02-19T20:07:04.729Z,10.70
2019-02-19T20:08:04.726Z,10.40
2019-02-19T20:09:04.670Z,11.20
2019-02-19T20:10:04.814Z,7.90
2019-02-19T20:11:04.876Z,12.30
2019-02-19T20:12:04.638Z,14.60
2019-02-19T20:13:04.810Z,14.80
2019-02-19T20:14:04.850Z,10.60
2019-02-19T20:15:04.630Z,10.80
2019-02-19T20:16:04.694Z,12.30
2019-02-19T20:17:04.580Z,7.60
2019-02-19T20:18:04.587Z,10.00
2019-02-19T20:19:04.848Z,8.80
2019-02-19T20:20:06.394Z,15.60
2019-02-19T20:21:04.630Z,15.90
2019-02-19T20:22:08.259Z,10.80
2019-02-19T20:23:04.550Z,15.80
2019-02-19T20:24:04.522Z,7.60
2019-02-19T20:25:04.589Z,13.60
2019-02-19T20:26:04.698Z,10.90
2019-02-19T20:27:04.747Z,11.70
2019-02-19T20:28:06.363Z,12.90
2019-02-19T20:29:05.796Z,13.70
2019-02-19T20:30:04.460Z,12.90
2019-02-19T20:31:04.749Z,15.20
2019-02-19T20:32:07.872Z,12.30
2019-02-19T20:33:04.562Z,12.10
2019-02-19T20:34:04.433Z,12.30
2019-02-19T20:35:04.479Z,13.50
2019-02-19T20:36:04.484Z,14.40
2019-02-19T20:37:04.431Z,12.80
2019-02-19T20:38:04.603Z,12.30
2019-02-19T20:39:04.421Z,9.80
2019-02-19T20:40:07.330Z,10.40
2019-02-19T20:41:07.380Z,11.50
2019-02-19T20:42:04.395Z,13.90
2019-02-19T20:43:06.958Z,9.30
2019-02-19T20:44:05.219Z,14.40
2019-02-19T20:45:06.749Z,15.10
2019-02-19T20:46:04.293Z,11.40
2019-02-19T20:47:04.513Z,11.40
2019-02-19T20:48:04.289Z,11.30
2019-02-19T20:49:05.717Z,13.90
2019-02-19T20:50:06.443Z,13.10
2019-02-19T20:51:04.388Z,12.60
2019-02-19T20:52:04.303Z,15.20
2019-02-19T20:53:04.198Z,14.30
2019-02-19T20:54:05.288Z,14.00
2019-02-19T20:55:04.301Z,13.20
2019-02-19T20:56:04.378Z,13.70
2019-02-19T20:57:04.207Z,15.20
2019-02-19T20:58:04.206Z,13.30
2019-02-19T20:59:04.206Z,12.00
2019-02-19T21:00:04.132Z,15.00
2019-02-19T21:01:04.159Z,13.50
2019-02-19T21:02:04.098Z,18.40
2019-02-19T21:03:04.185Z,14.00
2019-02-19T21:04:04.295Z,14.10
2019-02-19T21:05:04.215Z,13.30
2019-02-19T21:06:04.203Z,11.80
2019-02-19T21:07:05.867Z,15.90
2019-02-19T21:08:04.568Z,9.80
2019-02-19T21:09:04.414Z,11.30
2019-02-19T21:11:05.054Z,12.30
2019-02-19T21:12:04.082Z,16.00
2019-02-19T21:13:04.121Z,15.70
2019-02-19T21:14:04.004Z,14.60
2019-02-19T21:15:03.976Z,13.80
2019-02-19T21:16:03.962Z,14.60
2019-02-19T21:17:04.093Z,14.50
2019-02-19T21:18:03.967Z,12.80